sensor_id;sensor_type;location;lat;lon;timestamp;pressure;altitude;pressure_sealevel;temperature;humidity
9063;BME280;4567;42.118;24.746;2022-11-20T00:00:03;99152.19;;;14.58;96.16
9063;BME280;4567;42.118;24.746;2022-11-20T00:02:31;99152.91;;;14.55;96.31
9063;BME280;4567;42.118;24.746;2022-11-20T00:04:58;99166.47;;;14.60;95.84
9063;BME280;4567;42.118;24.746;2022-11-20T00:07:25;99156.00;;;14.65;95.45
9063;BME280;4567;42.118;24.746;2022-11-20T00:09:51;99154.03;;;14.66;94.62
9063;BME280;4567;42.118;24.746;2022-11-20T00:12:18;99155.53;;;14.63;95.24
9063;BME280;4567;42.118;24.746;2022-11-20T00:14:45;99153.47;;;14.60;95.49
9063;BME280;4567;42.118;24.746;2022-11-20T00:17:11;99142.44;;;14.60;95.58
9063;BME280;4567;42.118;24.746;2022-11-20T00:19:39;99144.50;;;14.51;96.63
9063;BME280;4567;42.118;24.746;2022-11-20T00:22:06;99157.94;;;14.65;95.95
9063;BME280;4567;42.118;24.746;2022-11-20T00:24:32;99156.19;;;14.72;95.55
9063;BME280;4567;42.118;24.746;2022-11-20T00:26:59;99156.19;;;14.72;95.61
9063;BME280;4567;42.118;24.746;2022-11-20T00:29:26;99159.44;;;14.62;94.93
9063;BME280;4567;42.118;24.746;2022-11-20T00:31:52;99152.44;;;14.53;95.81
9063;BME280;4567;42.118;24.746;2022-11-20T00:34:19;99171.31;;;14.51;96.16
9063;BME280;4567;42.118;24.746;2022-11-20T00:36:47;99142.09;;;14.38;96.09
9063;BME280;4567;42.118;24.746;2022-11-20T00:39:14;99143.34;;;14.16;98.47
9063;BME280;4567;42.118;24.746;2022-11-20T00:41:40;99154.41;;;14.28;98.58
9063;BME280;4567;42.118;24.746;2022-11-20T00:44:07;99152.22;;;14.34;98.25
9063;BME280;4567;42.118;24.746;2022-11-20T00:46:34;99147.28;;;14.39;98.74
9063;BME280;4567;42.118;24.746;2022-11-20T00:49:00;99148.19;;;14.43;98.32
9063;BME280;4567;42.118;24.746;2022-11-20T00:51:27;99160.63;;;14.25;99.85
9063;BME280;4567;42.118;24.746;2022-11-20T00:53:56;99169.47;;;14.31;99.89
9063;BME280;4567;42.118;24.746;2022-11-20T00:56:23;99149.94;;;14.36;100.00
9063;BME280;4567;42.118;24.746;2022-11-20T00:58:50;99171.84;;;14.44;99.79
9063;BME280;4567;42.118;24.746;2022-11-20T01:01:18;99167.25;;;14.48;100.00
9063;BME280;4567;42.118;24.746;2022-11-20T01:03:46;99172.66;;;14.57;100.00
9063;BME280;4567;42.118;24.746;2022-11-20T01:06:15;99157.84;;;14.61;99.52
9063;BME280;4567;42.118;24.746;2022-11-20T01:08:43;99150.50;;;14.53;98.95
9063;BME280;4567;42.118;24.746;2022-11-20T01:11:13;99150.00;;;14.63;98.25
9063;BME280;4567;42.118;24.746;2022-11-20T01:13:42;99145.97;;;14.73;97.19
9063;BME280;4567;42.118;24.746;2022-11-20T01:16:11;99167.72;;;14.62;96.64
9063;BME280;4567;42.118;24.746;2022-11-20T01:18:39;99145.41;;;14.67;97.03
9063;BME280;4567;42.118;24.746;2022-11-20T01:21:09;99164.84;;;14.71;96.60
9063;BME280;4567;42.118;24.746;2022-11-20T01:23:37;99145.41;;;14.67;96.28
9063;BME280;4567;42.118;24.746;2022-11-20T01:26:06;99138.63;;;14.77;95.87
9063;BME280;4567;42.118;24.746;2022-11-20T01:28:34;99130.72;;;14.63;95.57
9063;BME280;4567;42.118;24.746;2022-11-20T01:31:01;99143.34;;;14.64;95.46
9063;BME280;4567;42.118;24.746;2022-11-20T01:33:36;99130.59;;;14.72;94.88
9063;BME280;4567;42.118;24.746;2022-11-20T01:36:03;99132.44;;;14.68;94.21
9063;BME280;4567;42.118;24.746;2022-11-20T01:38:31;99128.63;;;14.72;94.35
9063;BME280;4567;42.118;24.746;2022-11-20T01:40:57;99121.75;;;14.66;94.08
9063;BME280;4567;42.118;24.746;2022-11-20T01:43:25;99127.50;;;14.61;93.49
9063;BME280;4567;42.118;24.746;2022-11-20T01:46:08;99103.63;;;14.53;94.02
9063;BME280;4567;42.118;24.746;2022-11-20T01:48:44;99105.81;;;14.48;94.57
9063;BME280;4567;42.118;24.746;2022-11-20T01:51:19;99107.06;;;14.50;93.86
9063;BME280;4567;42.118;24.746;2022-11-20T01:53:47;99108.44;;;14.44;94.69
9063;BME280;4567;42.118;24.746;2022-11-20T01:56:15;99108.44;;;14.44;94.58
9063;BME280;4567;42.118;24.746;2022-11-20T01:58:45;99105.91;;;14.51;93.98
9063;BME280;4567;42.118;24.746;2022-11-20T02:01:15;99088.69;;;14.42;94.58
9063;BME280;4567;42.118;24.746;2022-11-20T02:03:42;99096.16;;;14.42;95.05
9063;BME280;4567;42.118;24.746;2022-11-20T02:06:14;99110.53;;;14.35;95.30
9063;BME280;4567;42.118;24.746;2022-11-20T02:08:43;99113.28;;;14.35;94.78
9063;BME280;4567;42.118;24.746;2022-11-20T02:11:10;99090.44;;;14.35;94.88
9063;BME280;4567;42.118;24.746;2022-11-20T02:13:38;99092.47;;;14.38;94.26
9063;BME280;4567;42.118;24.746;2022-11-20T02:16:21;99097.56;;;14.36;94.31
9063;BME280;4567;42.118;24.746;2022-11-20T02:18:48;99066.91;;;14.25;93.94
9063;BME280;4567;42.118;24.746;2022-11-20T02:21:28;99073.66;;;14.40;93.15
9063;BME280;4567;42.118;24.746;2022-11-20T02:24:09;99088.34;;;14.44;93.43
9063;BME280;4567;42.118;24.746;2022-11-20T02:26:41;99082.59;;;14.49;92.75
9063;BME280;4567;42.118;24.746;2022-11-20T02:29:09;99084.44;;;14.21;95.01
9063;BME280;4567;42.118;24.746;2022-11-20T02:31:37;99085.13;;;14.30;94.82
9063;BME280;4567;42.118;24.746;2022-11-20T02:34:05;99079.03;;;14.36;94.66
9063;BME280;4567;42.118;24.746;2022-11-20T02:36:33;99065.63;;;14.35;94.40
9063;BME280;4567;42.118;24.746;2022-11-20T02:39:02;99065.25;;;14.24;94.73
9063;BME280;4567;42.118;24.746;2022-11-20T02:41:34;99054.22;;;14.36;94.69
9063;BME280;4567;42.118;24.746;2022-11-20T02:44:02;99068.69;;;14.45;94.18
9063;BME280;4567;42.118;24.746;2022-11-20T02:46:29;99065.13;;;14.45;93.45
9063;BME280;4567;42.118;24.746;2022-11-20T02:48:56;99062.03;;;14.46;93.34
9063;BME280;4567;42.118;24.746;2022-11-20T02:51:23;99066.38;;;14.47;93.31
9063;BME280;4567;42.118;24.746;2022-11-20T02:53:50;99068.69;;;14.45;93.30
9063;BME280;4567;42.118;24.746;2022-11-20T02:56:16;99064.34;;;14.32;94.24
9063;BME280;4567;42.118;24.746;2022-11-20T02:58:45;99069.06;;;14.20;95.14
9063;BME280;4567;42.118;24.746;2022-11-20T03:01:11;99072.50;;;14.29;95.01
9063;BME280;4567;42.118;24.746;2022-11-20T03:03:38;99073.53;;;14.24;95.29
9063;BME280;4567;42.118;24.746;2022-11-20T03:06:05;99064.31;;;14.20;96.70
9063;BME280;4567;42.118;24.746;2022-11-20T03:08:33;99066.91;;;14.25;96.52
9063;BME280;4567;42.118;24.746;2022-11-20T03:11:02;99041.16;;;13.85;98.57
9063;BME280;4567;42.118;24.746;2022-11-20T03:13:29;99047.34;;;13.82;100.00
9063;BME280;4567;42.118;24.746;2022-11-20T03:15:57;99058.38;;;14.06;99.45
9063;BME280;4567;42.118;24.746;2022-11-20T03:18:27;99073.66;;;14.16;98.73
9063;BME280;4567;42.118;24.746;2022-11-20T03:20:57;99072.41;;;14.25;97.83
9063;BME280;4567;42.118;24.746;2022-11-20T03:23:23;99056.78;;;14.29;97.38
9063;BME280;4567;42.118;24.746;2022-11-20T03:25:50;99054.59;;;14.35;97.13
9063;BME280;4567;42.118;24.746;2022-11-20T03:28:17;99061.03;;;14.39;97.13
9063;BME280;4567;42.118;24.746;2022-11-20T03:30:43;99053.19;;;14.41;96.80
9063;BME280;4567;42.118;24.746;2022-11-20T03:33:11;99053.41;;;14.48;96.56
9063;BME280;4567;42.118;24.746;2022-11-20T03:35:38;99047.31;;;14.54;96.27
9063;BME280;4567;42.118;24.746;2022-11-20T03:38:05;99035.75;;;14.25;98.92
9063;BME280;4567;42.118;24.746;2022-11-20T03:40:33;99048.94;;;14.31;100.00
9063;BME280;4567;42.118;24.746;2022-11-20T03:43:00;99033.22;;;14.32;100.00
9063;BME280;4567;42.118;24.746;2022-11-20T03:45:26;99048.59;;;14.21;100.00
9063;BME280;4567;42.118;24.746;2022-11-20T03:47:53;99068.94;;;14.28;100.00
9063;BME280;4567;42.118;24.746;2022-11-20T03:50:21;99054.09;;;14.21;100.00
9063;BME280;4567;42.118;24.746;2022-11-20T03:52:48;99055.94;;;14.17;100.00
9063;BME280;4567;42.118;24.746;2022-11-20T03:55:14;99064.13;;;14.37;100.00
9063;BME280;4567;42.118;24.746;2022-11-20T03:57:41;99055.84;;;14.37;100.00
9063;BME280;4567;42.118;24.746;2022-11-20T04:00:09;99058.13;;;14.47;100.00
9063;BME280;4567;42.118;24.746;2022-11-20T04:02:36;99066.34;;;14.59;100.00
9063;BME280;4567;42.118;24.746;2022-11-20T04:05:02;99048.56;;;14.57;100.00
9063;BME280;4567;42.118;24.746;2022-11-20T04:07:31;99060.59;;;14.64;100.00
9063;BME280;4567;42.118;24.746;2022-11-20T04:09:57;99076.34;;;14.64;100.00
9063;BME280;4567;42.118;24.746;2022-11-20T04:12:24;99062.06;;;14.74;100.00
9063;BME280;4567;42.118;24.746;2022-11-20T04:14:51;99095.28;;;14.77;100.00
9063;BME280;4567;42.118;24.746;2022-11-20T04:17:17;99077.97;;;14.53;100.00
9063;BME280;4567;42.118;24.746;2022-11-20T04:19:44;99085.69;;;14.47;100.00
9063;BME280;4567;42.118;24.746;2022-11-20T04:22:11;99089.94;;;14.57;100.00
9063;BME280;4567;42.118;24.746;2022-11-20T04:24:39;99084.41;;;14.57;100.00
9063;BME280;4567;42.118;24.746;2022-11-20T04:27:05;99077.72;;;14.70;100.00
9063;BME280;4567;42.118;24.746;2022-11-20T04:29:32;99065.28;;;14.76;98.92
9063;BME280;4567;42.118;24.746;2022-11-20T04:31:59;99059.34;;;14.62;99.18
9063;BME280;4567;42.118;24.746;2022-11-20T04:34:25;99067.50;;;14.70;98.83
9063;BME280;4567;42.118;24.746;2022-11-20T04:36:52;99074.84;;;14.66;98.70
9063;BME280;4567;42.118;24.746;2022-11-20T04:39:18;99065.63;;;14.74;98.45
9063;BME280;4567;42.118;24.746;2022-11-20T04:41:47;99069.41;;;14.82;97.80
9063;BME280;4567;42.118;24.746;2022-11-20T04:44:13;99074.13;;;14.81;97.42
9063;BME280;4567;42.118;24.746;2022-11-20T04:46:41;99069.69;;;14.65;98.66
9063;BME280;4567;42.118;24.746;2022-11-20T04:49:08;99079.22;;;14.67;100.00
9063;BME280;4567;42.118;24.746;2022-11-20T04:51:35;99069.59;;;14.61;100.00
9063;BME280;4567;42.118;24.746;2022-11-20T04:54:02;99070.88;;;14.52;100.00
9063;BME280;4567;42.118;24.746;2022-11-20T04:56:29;99062.28;;;14.17;100.00
9063;BME280;4567;42.118;24.746;2022-11-20T04:58:59;99082.94;;;14.35;100.00
9063;BME280;4567;42.118;24.746;2022-11-20T05:01:26;99090.41;;;14.47;100.00
9063;BME280;4567;42.118;24.746;2022-11-20T05:03:53;99081.31;;;14.58;100.00
9063;BME280;4567;42.118;24.746;2022-11-20T05:06:20;99081.63;;;14.69;100.00
9063;BME280;4567;42.118;24.746;2022-11-20T05:08:47;99071.78;;;14.56;100.00
9063;BME280;4567;42.118;24.746;2022-11-20T05:11:16;99065.25;;;14.36;100.00
9063;BME280;4567;42.118;24.746;2022-11-20T05:13:43;99078.09;;;14.56;100.00
9063;BME280;4567;42.118;24.746;2022-11-20T05:16:12;99095.75;;;14.67;100.00
9063;BME280;4567;42.118;24.746;2022-11-20T05:18:40;99102.31;;;14.75;100.00
9063;BME280;4567;42.118;24.746;2022-11-20T05:21:08;99083.00;;;14.75;100.00
9063;BME280;4567;42.118;24.746;2022-11-20T05:23:36;99093.25;;;14.62;100.00
9063;BME280;4567;42.118;24.746;2022-11-20T05:26:03;99073.94;;;14.62;100.00
9063;BME280;4567;42.118;24.746;2022-11-20T05:28:31;99083.56;;;14.80;100.00
9063;BME280;4567;42.118;24.746;2022-11-20T05:31:04;99092.03;;;14.87;100.00
9063;BME280;4567;42.118;24.746;2022-11-20T05:33:32;99089.72;;;14.89;100.00
9063;BME280;4567;42.118;24.746;2022-11-20T05:35:59;99072.72;;;14.87;100.00
9063;BME280;4567;42.118;24.746;2022-11-20T05:38:26;99083.28;;;14.97;100.00
9063;BME280;4567;42.118;24.746;2022-11-20T05:40:53;99069.91;;;14.99;99.87
9063;BME280;4567;42.118;24.746;2022-11-20T05:43:20;99072.22;;;14.97;99.71
9063;BME280;4567;42.118;24.746;2022-11-20T05:45:52;99086.97;;;14.89;99.63
9063;BME280;4567;42.118;24.746;2022-11-20T05:48:18;99094.09;;;14.90;98.78
9063;BME280;4567;42.118;24.746;2022-11-20T05:50:47;99092.25;;;14.94;98.49
9063;BME280;4567;42.118;24.746;2022-11-20T05:53:13;99092.75;;;14.84;97.79
9063;BME280;4567;42.118;24.746;2022-11-20T05:55:40;99099.63;;;14.90;97.62
9063;BME280;4567;42.118;24.746;2022-11-20T05:58:07;99095.00;;;14.94;96.80
9063;BME280;4567;42.118;24.746;2022-11-20T06:00:33;99095.81;;;14.95;96.57
9063;BME280;4567;42.118;24.746;2022-11-20T06:03:00;99106.84;;;14.95;96.27
9063;BME280;4567;42.118;24.746;2022-11-20T06:05:27;99062.41;;;14.84;96.32
9063;BME280;4567;42.118;24.746;2022-11-20T06:07:55;99069.97;;;14.36;99.49
9063;BME280;4567;42.118;24.746;2022-11-20T06:10:22;99079.97;;;14.28;100.00
9063;BME280;4567;42.118;24.746;2022-11-20T06:12:48;99080.78;;;14.29;100.00
9063;BME280;4567;42.118;24.746;2022-11-20T06:15:15;99101.22;;;14.52;100.00
9063;BME280;4567;42.118;24.746;2022-11-20T06:17:42;99085.94;;;14.42;100.00
9063;BME280;4567;42.118;24.746;2022-11-20T06:20:09;99104.06;;;14.55;100.00
9063;BME280;4567;42.118;24.746;2022-11-20T06:22:36;99099.94;;;14.61;100.00
9063;BME280;4567;42.118;24.746;2022-11-20T06:25:04;99106.91;;;14.71;100.00
9063;BME280;4567;42.118;24.746;2022-11-20T06:27:31;99100.13;;;14.80;100.00
9063;BME280;4567;42.118;24.746;2022-11-20T06:29:58;99100.38;;;14.51;100.00
9063;BME280;4567;42.118;24.746;2022-11-20T06:32:24;99053.88;;;14.38;100.00
9063;BME280;4567;42.118;24.746;2022-11-20T06:34:51;99107.00;;;14.74;100.00
9063;BME280;4567;42.118;24.746;2022-11-20T06:37:19;99113.88;;;14.92;100.00
9063;BME280;4567;42.118;24.746;2022-11-20T06:39:45;99113.47;;;15.06;100.00
9063;BME280;4567;42.118;24.746;2022-11-20T06:42:13;99118.28;;;15.09;100.00
9063;BME280;4567;42.118;24.746;2022-11-20T06:44:40;99119.50;;;15.23;100.00
9063;BME280;4567;42.118;24.746;2022-11-20T06:47:07;99126.38;;;15.29;100.00
9063;BME280;4567;42.118;24.746;2022-11-20T06:49:33;99114.50;;;15.41;100.00
9063;BME280;4567;42.118;24.746;2022-11-20T06:52:02;99109.88;;;15.45;100.00
9063;BME280;4567;42.118;24.746;2022-11-20T06:54:29;99116.41;;;15.52;100.00
9063;BME280;4567;42.118;24.746;2022-11-20T06:56:55;99125.13;;;15.54;100.00
9063;BME280;4567;42.118;24.746;2022-11-20T06:59:23;99142.25;;;15.60;100.00
9063;BME280;4567;42.118;24.746;2022-11-20T07:01:50;99136.88;;;15.51;100.00
9063;BME280;4567;42.118;24.746;2022-11-20T07:04:17;99123.88;;;15.36;100.00
9063;BME280;4567;42.118;24.746;2022-11-20T07:06:43;99140.09;;;15.38;100.00
9063;BME280;4567;42.118;24.746;2022-11-20T07:09:10;99155.88;;;15.53;100.00
9063;BME280;4567;42.118;24.746;2022-11-20T07:11:37;99137.19;;;15.62;100.00
9063;BME280;4567;42.118;24.746;2022-11-20T07:14:04;99127.47;;;15.52;100.00
9063;BME280;4567;42.118;24.746;2022-11-20T07:16:32;99110.97;;;15.28;100.00
9063;BME280;4567;42.118;24.746;2022-11-20T07:18:58;99117.19;;;15.53;100.00
9063;BME280;4567;42.118;24.746;2022-11-20T07:21:25;99139.22;;;15.65;100.00
9063;BME280;4567;42.118;24.746;2022-11-20T07:23:52;99124.56;;;15.76;100.00
9063;BME280;4567;42.118;24.746;2022-11-20T07:26:18;99130.72;;;15.85;98.60
9063;BME280;4567;42.118;24.746;2022-11-20T07:28:45;99144.81;;;15.96;97.65
9063;BME280;4567;42.118;24.746;2022-11-20T07:31:12;99142.38;;;15.94;98.08
9063;BME280;4567;42.118;24.746;2022-11-20T07:33:40;99144.53;;;16.01;98.21
9063;BME280;4567;42.118;24.746;2022-11-20T07:36:07;99160.59;;;16.11;97.32
9063;BME280;4567;42.118;24.746;2022-11-20T07:38:34;99154.81;;;16.16;95.92
9063;BME280;4567;42.118;24.746;2022-11-20T07:41:01;99162.03;;;16.20;95.84
9063;BME280;4567;42.118;24.746;2022-11-20T07:43:27;99152.59;;;16.06;97.11
9063;BME280;4567;42.118;24.746;2022-11-20T07:45:55;99165.97;;;16.19;96.10
9063;BME280;4567;42.118;24.746;2022-11-20T07:48:21;99158.91;;;16.22;95.41
9063;BME280;4567;42.118;24.746;2022-11-20T07:50:52;99138.13;;;16.28;95.01
9063;BME280;4567;42.118;24.746;2022-11-20T07:53:19;99155.53;;;16.28;94.87
9063;BME280;4567;42.118;24.746;2022-11-20T07:55:47;99139.09;;;16.35;94.15
9063;BME280;4567;42.118;24.746;2022-11-20T07:58:13;99130.91;;;16.08;97.00
9063;BME280;4567;42.118;24.746;2022-11-20T08:00:40;99134.00;;;16.06;97.87
9063;BME280;4567;42.118;24.746;2022-11-20T08:03:07;99152.28;;;16.26;96.28
9063;BME280;4567;42.118;24.746;2022-11-20T08:05:34;99152.66;;;16.40;95.00
9063;BME280;4567;42.118;24.746;2022-11-20T08:08:02;99157.59;;;16.47;94.42
9063;BME280;4567;42.118;24.746;2022-11-20T08:10:28;99152.22;;;16.54;93.82
9063;BME280;4567;42.118;24.746;2022-11-20T08:12:55;99142.03;;;16.58;93.76
9063;BME280;4567;42.118;24.746;2022-11-20T08:15:39;99142.94;;;16.62;94.87
9063;BME280;4567;42.118;24.746;2022-11-20T08:18:08;99125.69;;;16.68;95.41
9063;BME280;4567;42.118;24.746;2022-11-20T08:20:36;99125.91;;;16.79;95.31
9063;BME280;4567;42.118;24.746;2022-11-20T08:23:05;99134.03;;;16.87;94.99
9063;BME280;4567;42.118;24.746;2022-11-20T08:25:33;99148.66;;;16.88;94.22
9063;BME280;4567;42.118;24.746;2022-11-20T08:28:02;99146.69;;;16.88;94.66
9063;BME280;4567;42.118;24.746;2022-11-20T08:30:29;99144.63;;;17.01;94.59
9063;BME280;4567;42.118;24.746;2022-11-20T08:33:01;99148.75;;;17.10;94.07
9063;BME280;4567;42.118;24.746;2022-11-20T08:35:28;99141.78;;;17.16;93.83
9063;BME280;4567;42.118;24.746;2022-11-20T08:37:54;99123.41;;;17.27;93.57
9063;BME280;4567;42.118;24.746;2022-11-20T08:40:22;99126.75;;;17.36;93.14
9063;BME280;4567;42.118;24.746;2022-11-20T08:42:50;99132.97;;;17.49;91.97
9063;BME280;4567;42.118;24.746;2022-11-20T08:45:18;99133.09;;;17.56;90.68
9063;BME280;4567;42.118;24.746;2022-11-20T08:47:45;99116.03;;;17.73;88.37
9063;BME280;4567;42.118;24.746;2022-11-20T08:50:14;99121.81;;;17.87;84.82
9063;BME280;4567;42.118;24.746;2022-11-20T08:52:41;99116.09;;;17.99;84.31
9063;BME280;4567;42.118;24.746;2022-11-20T08:55:08;99114.25;;;18.07;85.00
9063;BME280;4567;42.118;24.746;2022-11-20T08:57:37;99116.94;;;18.26;85.02
9063;BME280;4567;42.118;24.746;2022-11-20T09:00:05;99104.66;;;18.49;83.29
9063;BME280;4567;42.118;24.746;2022-11-20T09:02:33;99113.75;;;18.72;81.85
9063;BME280;4567;42.118;24.746;2022-11-20T09:05:00;99119.91;;;18.88;80.71
9063;BME280;4567;42.118;24.746;2022-11-20T09:07:28;99126.94;;;19.08;79.03
9063;BME280;4567;42.118;24.746;2022-11-20T09:09:54;99120.00;;;19.25;78.02
9063;BME280;4567;42.118;24.746;2022-11-20T09:12:21;99124.56;;;19.40;77.29
9063;BME280;4567;42.118;24.746;2022-11-20T09:14:49;99113.19;;;19.52;76.83
9063;BME280;4567;42.118;24.746;2022-11-20T09:17:16;99111.72;;;19.61;73.90
9063;BME280;4567;42.118;24.746;2022-11-20T09:19:42;99106.41;;;19.86;73.10
9063;BME280;4567;42.118;24.746;2022-11-20T09:22:09;99102.53;;;19.97;72.46
9063;BME280;4567;42.118;24.746;2022-11-20T09:24:36;99098.25;;;20.07;71.83
9063;BME280;4567;42.118;24.746;2022-11-20T09:27:04;99099.19;;;20.18;70.52
9063;BME280;4567;42.118;24.746;2022-11-20T09:29:31;99088.47;;;20.20;69.37
9063;BME280;4567;42.118;24.746;2022-11-20T09:31:59;99084.25;;;20.40;68.31
9063;BME280;4567;42.118;24.746;2022-11-20T09:34:26;99076.06;;;20.61;67.55
9063;BME280;4567;42.118;24.746;2022-11-20T09:36:52;99079.28;;;20.66;67.34
9063;BME280;4567;42.118;24.746;2022-11-20T09:39:19;99072.16;;;20.76;66.09
9063;BME280;4567;42.118;24.746;2022-11-20T09:42:04;99065.97;;;21.03;65.40
9063;BME280;4567;42.118;24.746;2022-11-20T09:44:49;99063.59;;;21.12;64.26
9063;BME280;4567;42.118;24.746;2022-11-20T09:47:30;99055.66;;;21.21;62.83
9063;BME280;4567;42.118;24.746;2022-11-20T09:50:07;99054.94;;;21.42;62.46
9063;BME280;4567;42.118;24.746;2022-11-20T09:52:49;99042.31;;;21.79;61.39
9063;BME280;4567;42.118;24.746;2022-11-20T09:55:21;99034.34;;;21.92;60.87
9063;BME280;4567;42.118;24.746;2022-11-20T09:57:51;99037.53;;;21.94;60.22
9063;BME280;4567;42.118;24.746;2022-11-20T10:00:19;99025.56;;;21.97;59.47
9063;BME280;4567;42.118;24.746;2022-11-20T10:02:52;99046.31;;;22.24;58.57
9063;BME280;4567;42.118;24.746;2022-11-20T10:05:24;99041.88;;;22.44;57.98
9063;BME280;4567;42.118;24.746;2022-11-20T10:07:55;99028.72;;;22.59;57.13
9063;BME280;4567;42.118;24.746;2022-11-20T10:10:31;99038.22;;;22.82;56.37
9063;BME280;4567;42.118;24.746;2022-11-20T10:16:06;99027.34;;;23.12;54.42
9063;BME280;4567;42.118;24.746;2022-11-20T10:18:45;99036.88;;;23.18;54.30
9063;BME280;4567;42.118;24.746;2022-11-20T10:21:23;99034.06;;;23.18;54.45
9063;BME280;4567;42.118;24.746;2022-11-20T10:27:22;99021.31;;;23.24;54.77
9063;BME280;4567;42.118;24.746;2022-11-20T10:30:00;99013.66;;;23.35;55.02
9063;BME280;4567;42.118;24.746;2022-11-20T10:32:33;99012.81;;;23.38;54.83
9063;BME280;4567;42.118;24.746;2022-11-20T10:35:05;99012.00;;;23.41;55.02
9063;BME280;4567;42.118;24.746;2022-11-20T10:37:35;99008.81;;;23.43;54.35
9063;BME280;4567;42.118;24.746;2022-11-20T10:40:17;99002.81;;;23.44;54.18
9063;BME280;4567;42.118;24.746;2022-11-20T10:42:47;99009.25;;;23.34;54.35
9063;BME280;4567;42.118;24.746;2022-11-20T10:45:27;98992.13;;;23.29;55.20
9063;BME280;4567;42.118;24.746;2022-11-20T10:48:08;98980.13;;;23.28;55.49
9063;BME280;4567;42.118;24.746;2022-11-20T10:50:41;98980.13;;;23.28;55.13
9063;BME280;4567;42.118;24.746;2022-11-20T10:53:18;98991.69;;;23.34;54.81
9063;BME280;4567;42.118;24.746;2022-11-20T10:55:55;98995.28;;;23.34;54.69
9063;BME280;4567;42.118;24.746;2022-11-20T10:58:28;98992.91;;;23.33;54.98
9063;BME280;4567;42.118;24.746;2022-11-20T11:01:03;98986.50;;;23.32;55.57
9063;BME280;4567;42.118;24.746;2022-11-20T11:03:31;98981.28;;;23.38;55.73
9063;BME280;4567;42.118;24.746;2022-11-20T11:06:03;98979.69;;;23.37;55.54
9063;BME280;4567;42.118;24.746;2022-11-20T11:08:37;98978.94;;;23.33;55.73
9063;BME280;4567;42.118;24.746;2022-11-20T11:11:14;98982.56;;;23.19;55.89
9063;BME280;4567;42.118;24.746;2022-11-20T11:13:44;98975.00;;;23.13;56.17
9063;BME280;4567;42.118;24.746;2022-11-20T11:16:19;98961.81;;;23.13;56.26
9063;BME280;4567;42.118;24.746;2022-11-20T11:18:46;98959.03;;;23.13;56.45
9063;BME280;4567;42.118;24.746;2022-11-20T11:21:21;98949.84;;;23.09;56.99
9063;BME280;4567;42.118;24.746;2022-11-20T11:23:57;98951.50;;;23.00;57.25
9063;BME280;4567;42.118;24.746;2022-11-20T11:26:25;98945.63;;;22.80;57.77
9063;BME280;4567;42.118;24.746;2022-11-20T11:28:54;98923.69;;;22.75;57.93
9063;BME280;4567;42.118;24.746;2022-11-20T11:31:25;98929.19;;;22.96;57.65
9063;BME280;4567;42.118;24.746;2022-11-20T11:34:02;98936.00;;;22.88;57.79
9063;BME280;4567;42.118;24.746;2022-11-20T11:36:32;98938.06;;;22.70;56.69
9063;BME280;4567;42.118;24.746;2022-11-20T11:39:00;98935.25;;;22.77;56.27
9063;BME280;4567;42.118;24.746;2022-11-20T11:41:30;98933.25;;;22.74;55.91
9063;BME280;4567;42.118;24.746;2022-11-20T11:44:01;98940.09;;;22.63;56.30
9063;BME280;4567;42.118;24.746;2022-11-20T11:46:51;98956.81;;;22.73;56.44
9063;BME280;4567;42.118;24.746;2022-11-20T11:49:20;98956.84;;;22.70;56.10
9063;BME280;4567;42.118;24.746;2022-11-20T11:51:57;98954.81;;;22.77;55.86
9063;BME280;4567;42.118;24.746;2022-11-20T11:54:30;98957.22;;;22.79;56.10
9063;BME280;4567;42.118;24.746;2022-11-20T11:57:00;98952.00;;;22.77;56.50
9063;BME280;4567;42.118;24.746;2022-11-20T11:59:38;98957.22;;;22.75;56.66
9063;BME280;4567;42.118;24.746;2022-11-20T12:02:18;98951.69;;;22.61;57.31
9063;BME280;4567;42.118;24.746;2022-11-20T12:04:50;98937.75;;;22.54;58.29
9063;BME280;4567;42.118;24.746;2022-11-20T12:07:30;98942.09;;;22.62;58.34
9063;BME280;4567;42.118;24.746;2022-11-20T12:10:02;98937.72;;;22.61;58.75
9063;BME280;4567;42.118;24.746;2022-11-20T12:12:32;98937.75;;;22.54;59.09
9063;BME280;4567;42.118;24.746;2022-11-20T12:15:06;98914.63;;;22.40;59.45
9063;BME280;4567;42.118;24.746;2022-11-20T12:17:36;98927.41;;;22.51;59.66
9063;BME280;4567;42.118;24.746;2022-11-20T12:20:05;98926.56;;;22.54;59.46
9063;BME280;4567;42.118;24.746;2022-11-20T12:22:40;98916.59;;;22.53;58.94
9063;BME280;4567;42.118;24.746;2022-11-20T12:25:14;98920.25;;;22.26;59.01
9063;BME280;4567;42.118;24.746;2022-11-20T12:27:51;98924.59;;;22.37;58.53
9063;BME280;4567;42.118;24.746;2022-11-20T12:30:22;98924.16;;;22.53;57.19
9063;BME280;4567;42.118;24.746;2022-11-20T12:33:12;98913.38;;;22.58;56.49
9063;BME280;4567;42.118;24.746;2022-11-20T12:35:58;98915.00;;;22.59;56.97
9063;BME280;4567;42.118;24.746;2022-11-20T12:39:02;98912.56;;;22.61;56.72
9063;BME280;4567;42.118;24.746;2022-11-20T12:41:54;98905.81;;;22.59;55.85
9063;BME280;4567;42.118;24.746;2022-11-20T12:45:02;98908.59;;;22.59;53.88
9063;BME280;4567;42.118;24.746;2022-11-20T12:47:46;98911.38;;;22.62;54.70
9063;BME280;4567;42.118;24.746;2022-11-20T12:50:23;98918.16;;;22.61;55.96
9063;BME280;4567;42.118;24.746;2022-11-20T12:52:57;98917.78;;;22.59;55.04
9063;BME280;4567;42.118;24.746;2022-11-20T12:55:32;98911.38;;;22.62;54.50
9063;BME280;4567;42.118;24.746;2022-11-20T12:58:05;98909.03;;;22.54;54.93
9063;BME280;4567;42.118;24.746;2022-11-20T13:00:40;98913.78;;;22.60;54.56
9063;BME280;4567;42.118;24.746;2022-11-20T13:03:38;98911.41;;;22.55;53.60
9063;BME280;4567;42.118;24.746;2022-11-20T13:06:13;98915.81;;;22.46;48.40
9063;BME280;4567;42.118;24.746;2022-11-20T13:08:43;98919.38;;;22.46;49.04
9063;BME280;4567;42.118;24.746;2022-11-20T13:11:18;98927.41;;;22.37;46.75
9063;BME280;4567;42.118;24.746;2022-11-20T13:16:44;98925.72;;;22.61;43.80
9063;BME280;4567;42.118;24.746;2022-11-20T13:19:16;98934.13;;;22.64;44.67
9063;BME280;4567;42.118;24.746;2022-11-20T13:21:44;98932.16;;;22.58;44.37
9063;BME280;4567;42.118;24.746;2022-11-20T13:24:22;98938.53;;;22.55;44.28
9063;BME280;4567;42.118;24.746;2022-11-20T13:27:05;98934.53;;;22.63;42.00
9063;BME280;4567;42.118;24.746;2022-11-20T13:29:33;98940.06;;;22.73;41.76